This is the latest recevied weather packets stored in our database for station/object N4JTC. If no packets are shown the sender has not sent any weather packets the latest 10 day(s).
| Time | Temp. | Humidity | Pressure | Rain* | Wind** | Luminosity | Snow |
|---|---|---|---|---|---|---|---|
| 1778096103 | 28.89° C | 73% | 1017.4 hPa | 0 mm | - | 422 W/m² | - |
| 1778095803 | 28.89° C | 73% | 1017.2 hPa | 0 mm | - | 808 W/m² | - |
| 1778095503 | 28.33° C | 73% | 1017.2 hPa | 0 mm | - | 776 W/m² | - |
| 1778095202 | 28.33° C | 73% | 1017.3 hPa | 0 mm | - | 824 W/m² | - |
| 1778094903 | 28.33° C | 73% | 1017.5 hPa | 0 mm | - | 829 W/m² | - |
| 1778094603 | 28.33° C | 71% | 1017.4 hPa | 0 mm | - | 831 W/m² | - |
| 1778094303 | 28.33° C | 72% | 1017.4 hPa | 0 mm | - | 861 W/m² | - |
| 1778093703 | 28.33° C | 73% | 1017.6 hPa | 0 mm | - | 858 W/m² | - |
| 1778093103 | 28.89° C | 69% | 1017.6 hPa | 0 mm | - | 838 W/m² | - |
| 1778092802 | 28.89° C | 70% | 1017.7 hPa | 0 mm | - | 887 W/m² | - |
| 1778092503 | 28.33° C | 69% | 1017.6 hPa | 0 mm | - | 877 W/m² | - |
| 1778092203 | 28.33° C | 71% | 1017.5 hPa | 0 mm | - | 878 W/m² | - |
| 1778091903 | 28.33° C | 72% | 1017.5 hPa | 0 mm | - | 884 W/m² | - |
| 1778091603 | 28.89° C | 72% | 1017.5 hPa | 0 mm | - | 888 W/m² | - |
| 1778091303 | 28.33° C | 70% | 1017.4 hPa | 0 mm | - | 858 W/m² | - |
| 1778091003 | 28.33° C | 73% | 1017.8 hPa | 0 mm | - | 872 W/m² | - |
| 1778090703 | 28.33° C | 73% | 1017.9 hPa | 0 mm | - | 836 W/m² | - |
| 1778090404 | 28.33° C | 72% | 1018 hPa | 0 mm | - | 873 W/m² | - |
| 1778090103 | 28.33° C | 71% | 1017.9 hPa | 0 mm | - | 913 W/m² | - |
| 1778089803 | 28.33° C | 72% | 1017.9 hPa | 0 mm | - | 970 W/m² | - |
| 1778089503 | 28.33° C | 72% | 1017.9 hPa | 0 mm | - | 863 W/m² | - |
| 1778088903 | 28.33° C | 71% | 1017.8 hPa | 0 mm | - | 822 W/m² | - |
| 1778088603 | 28.33° C | 73% | 1018.1 hPa | 0 mm | - | 871 W/m² | - |
| 1778088303 | 27.78° C | 74% | 1018 hPa | 0 mm | - | 922 W/m² | - |
| 1778087703 | 27.22° C | 75% | 1018.3 hPa | 0 mm | - | 955 W/m² | - |
* Rain latest hour (hover to see other rain measurements)
** Current wind speed in m/s (hover to see current wind gust speed)